Time;durP1;ratioP1;P1;durP2;ratioP2;P2;SDS_P1;SDS_P2;PMS_P1;PMS_P2;Temp;Humidity;BMP_temperature;BMP_pressure;BME280_temperature;BME280_humidity;BME280_pressure;Samples;Min_cycle;Max_cycle;Signal;HPM_P1;HPM_P2
2023/03/16 00:02:00;;;;;;;;;;;4.40;98.90;;;;;;5067450;28;19917;-74
2023/03/16 00:04:25;;;;;;;;;;;4.40;98.90;;;;;;5067651;28;19920;-74
2023/03/16 00:06:51;;;;;;;;;;;4.40;98.90;;;;;;5067828;28;19951;-74
2023/03/16 00:09:16;;;;;;;;;;;4.30;98.90;;;;;;5050004;28;20463;-75
2023/03/16 00:11:42;;;;;;;;;;;4.30;98.90;;;;;;5067333;28;20002;-74
2023/03/16 00:14:07;;;;;;;;;;;4.30;98.90;;;;;;5049330;28;19916;-74
2023/03/16 00:16:34;;;;;;;;;;;4.30;98.90;;;;;;5049728;28;20512;-74
2023/03/16 00:19:02;;;;;;;;;;;4.30;98.90;;;;;;5067665;28;19923;-74
2023/03/16 00:21:30;;;;;;;;;;;4.30;98.90;;;;;;5070367;28;20694;-74
2023/03/16 00:23:57;;;;;;;;;;;4.30;98.90;;;;;;5071577;28;19909;-74
2023/03/16 00:26:22;;;;;;;;;;;4.30;98.90;;;;;;5071548;28;20691;-74
2023/03/16 00:28:47;;;;;;;;;;;4.30;98.90;;;;;;5071426;28;20018;-75
2023/03/16 00:31:13;;;;;;;;;;;4.30;98.80;;;;;;5054271;28;19924;-74
2023/03/16 00:33:45;;;;;;;;;;;4.30;98.90;;;;;;5070887;28;20285;-74
2023/03/16 00:36:11;;;;;;;;;;;4.30;98.90;;;;;;5071479;28;19975;-74
2023/03/16 00:38:38;;;;;;;;;;;4.30;98.90;;;;;;5052782;28;20654;-74
2023/03/16 00:41:05;;;;;;;;;;;4.30;98.90;;;;;;5070653;28;19920;-74
2023/03/16 00:43:31;;;;;;;;;;;4.20;98.90;;;;;;5070852;28;20015;-74
2023/03/16 00:45:58;;;;;;;;;;;4.30;98.90;;;;;;5071032;28;19935;-74
2023/03/16 00:48:23;;;;;;;;;;;4.30;98.90;;;;;;5071190;28;20021;-74
2023/03/16 00:50:53;;;;;;;;;;;4.20;98.90;;;;;;5070927;28;20369;-73
2023/03/16 00:53:19;;;;;;;;;;;4.20;98.90;;;;;;5070910;28;19916;-74
2023/03/16 00:55:44;;;;;;;;;;;4.20;98.90;;;;;;5071135;28;19924;-74
2023/03/16 00:58:13;;;;;;;;;;;4.20;98.90;;;;;;5058378;28;19924;-74
2023/03/16 01:00:39;;;;;;;;;;;4.20;98.90;;;;;;5070476;28;19912;-74
2023/03/16 01:03:05;;;;;;;;;;;4.20;98.90;;;;;;5070960;28;19912;-74
2023/03/16 01:05:32;;;;;;;;;;;4.20;98.90;;;;;;5070726;28;19969;-74
2023/03/16 01:07:58;;;;;;;;;;;4.20;98.90;;;;;;5070842;28;19924;-74
2023/03/16 01:10:24;;;;;;;;;;;4.20;98.90;;;;;;5070425;28;19912;-74
2023/03/16 01:12:54;;;;;;;;;;;4.20;98.90;;;;;;5070680;28;19940;-74
2023/03/16 01:15:20;;;;;;;;;;;4.20;98.90;;;;;;5070695;28;19955;-74
2023/03/16 01:17:46;;;;;;;;;;;4.20;98.80;;;;;;5070706;28;19955;-74
2023/03/16 01:20:13;;;;;;;;;;;4.20;98.90;;;;;;5070370;28;19986;-73
2023/03/16 01:22:38;;;;;;;;;;;4.20;98.90;;;;;;5052260;28;19923;-74
2023/03/16 01:25:04;;;;;;;;;;;4.20;98.90;;;;;;5070609;28;20365;-74
2023/03/16 01:27:30;;;;;;;;;;;4.20;98.90;;;;;;5070181;28;19919;-74
2023/03/16 01:29:55;;;;;;;;;;;4.20;98.90;;;;;;5052223;28;19920;-74
2023/03/16 01:32:21;;;;;;;;;;;4.20;98.90;;;;;;5051618;28;19912;-74
2023/03/16 01:34:46;;;;;;;;;;;4.20;98.80;;;;;;5070248;28;19974;-74
2023/03/16 01:37:12;;;;;;;;;;;4.20;98.80;;;;;;5070160;28;19968;-74
2023/03/16 01:39:37;;;;;;;;;;;4.20;98.80;;;;;;5070245;28;19920;-74
2023/03/16 01:42:03;;;;;;;;;;;4.20;98.90;;;;;;5069709;28;20676;-73
2023/03/16 01:44:33;;;;;;;;;;;4.20;98.80;;;;;;5070221;28;19912;-75
2023/03/16 01:46:59;;;;;;;;;;;4.20;98.80;;;;;;5052084;28;19916;-74
2023/03/16 01:49:27;;;;;;;;;;;4.20;98.90;;;;;;5070176;28;20453;-74
2023/03/16 01:51:58;;;;;;;;;;;4.20;98.90;;;;;;5070119;28;19912;-74
2023/03/16 01:54:47;;;;;;;;;;;4.20;98.90;;;;;;5069929;28;20566;-74
2023/03/16 01:57:20;;;;;;;;;;;4.20;98.90;;;;;;5055593;28;19960;-74
2023/03/16 01:59:46;;;;;;;;;;;4.20;98.90;;;;;;5069372;28;19962;-74
2023/03/16 02:02:13;;;;;;;;;;;4.20;98.80;;;;;;5069620;28;19916;-74
2023/03/16 02:05:00;;;;;;;;;;;4.20;99.00;;;;;;5069742;28;19920;-74
2023/03/16 02:07:27;;;;;;;;;;;4.20;98.90;;;;;;5051928;28;20380;-74
2023/03/16 02:09:55;;;;;;;;;;;4.20;99.20;;;;;;5069616;28;20308;-74
2023/03/16 02:12:20;;;;;;;;;;;4.20;98.90;;;;;;5069383;28;20373;-74
2023/03/16 02:14:47;;;;;;;;;;;4.20;98.90;;;;;;5069421;28;19920;-74
2023/03/16 02:17:13;;;;;;;;;;;4.20;98.90;;;;;;5069638;28;19912;-74
2023/03/16 02:19:48;;;;;;;;;;;4.20;98.90;;;;;;5069441;28;20392;-74
2023/03/16 02:22:14;;;;;;;;;;;4.20;98.90;;;;;;5071786;28;20700;-74
2023/03/16 02:24:40;;;;;;;;;;;4.20;98.90;;;;;;5069432;28;20007;-74
2023/03/16 02:27:18;;;;;;;;;;;4.10;98.80;;;;;;5051344;28;20316;-74
2023/03/16 02:29:52;;;;;;;;;;;4.20;98.90;;;;;;5069133;28;20377;-73
2023/03/16 02:32:18;;;;;;;;;;;4.10;98.80;;;;;;5068843;28;19974;-74
2023/03/16 02:34:44;;;;;;;;;;;4.10;98.80;;;;;;5068841;28;19913;-75
2023/03/16 02:37:10;;;;;;;;;;;4.10;98.80;;;;;;5069075;28;19912;-74
2023/03/16 02:39:36;;;;;;;;;;;4.10;98.80;;;;;;5069079;28;19912;-74
2023/03/16 02:42:02;;;;;;;;;;;4.10;98.90;;;;;;5068761;28;19918;-74
2023/03/16 02:44:32;;;;;;;;;;;4.10;98.90;;;;;;5068332;28;20498;-74
2023/03/16 02:47:01;;;;;;;;;;;4.10;98.90;;;;;;5052098;28;19912;-75
2023/03/16 02:49:31;;;;;;;;;;;4.10;98.80;;;;;;5068783;28;19935;-74
2023/03/16 02:51:57;;;;;;;;;;;4.10;98.80;;;;;;5068461;28;20380;-74
2023/03/16 02:54:23;;;;;;;;;;;4.10;98.80;;;;;;5068633;28;19916;-74
2023/03/16 02:56:49;;;;;;;;;;;4.10;98.80;;;;;;5050434;28;19912;-75
2023/03/16 02:59:14;;;;;;;;;;;4.10;98.80;;;;;;5064667;28;20427;-74
2023/03/16 03:01:40;;;;;;;;;;;4.10;98.80;;;;;;5065456;28;20101;-74
2023/03/16 03:04:06;;;;;;;;;;;4.00;98.80;;;;;;5058466;28;19999;-74
2023/03/16 03:06:32;;;;;;;;;;;4.10;98.80;;;;;;5056185;28;19920;-74
2023/03/16 03:08:58;;;;;;;;;;;4.10;98.80;;;;;;5050712;28;20617;-74
2023/03/16 03:11:23;;;;;;;;;;;4.10;98.80;;;;;;5067681;28;19916;-74
2023/03/16 03:13:49;;;;;;;;;;;4.10;98.70;;;;;;5068205;28;20384;-73
2023/03/16 03:16:15;;;;;;;;;;;4.00;98.80;;;;;;5067996;28;19913;-75
2023/03/16 03:18:40;;;;;;;;;;;4.00;98.80;;;;;;5068093;28;20003;-74
2023/03/16 03:21:06;;;;;;;;;;;4.00;98.80;;;;;;5067715;28;19923;-74
2023/03/16 03:23:33;;;;;;;;;;;4.10;98.80;;;;;;5045883;28;19909;-74
2023/03/16 03:25:59;;;;;;;;;;;4.00;98.80;;;;;;5048169;28;19917;-74
2023/03/16 03:28:24;;;;;;;;;;;4.00;98.80;;;;;;5048101;28;20660;-75
2023/03/16 03:30:50;;;;;;;;;;;4.00;98.80;;;;;;5047732;28;19920;-74
2023/03/16 03:33:16;;;;;;;;;;;4.00;98.80;;;;;;5047787;28;19916;-74
2023/03/16 03:35:41;;;;;;;;;;;4.00;98.80;;;;;;5061279;28;19916;-74
2023/03/16 03:38:07;;;;;;;;;;;4.00;98.80;;;;;;5067780;28;20023;-73
2023/03/16 03:40:32;;;;;;;;;;;4.00;98.70;;;;;;5067750;28;19919;-74
2023/03/16 03:42:58;;;;;;;;;;;4.00;98.80;;;;;;5067820;28;19912;-74
2023/03/16 03:45:24;;;;;;;;;;;4.00;98.70;;;;;;5067631;28;20676;-74
2023/03/16 03:47:50;;;;;;;;;;;4.00;98.70;;;;;;5067595;28;19969;-74
2023/03/16 03:50:15;;;;;;;;;;;4.00;98.70;;;;;;5067450;28;19920;-74
2023/03/16 03:52:41;;;;;;;;;;;4.10;98.70;;;;;;5067316;28;19912;-74
2023/03/16 03:55:06;;;;;;;;;;;4.00;98.70;;;;;;5068141;28;19947;-74
2023/03/16 03:57:32;;;;;;;;;;;4.00;98.70;;;;;;5061768;28;19912;-74
2023/03/16 03:59:57;;;;;;;;;;;4.10;98.70;;;;;;5065790;28;19913;-74
2023/03/16 04:02:23;;;;;;;;;;;4.10;98.70;;;;;;5067254;28;19999;-74
2023/03/16 04:04:48;;;;;;;;;;;4.00;98.70;;;;;;5067234;28;20059;-74
2023/03/16 04:07:14;;;;;;;;;;;4.10;98.70;;;;;;5067498;28;19913;-74
2023/03/16 04:09:40;;;;;;;;;;;4.10;98.70;;;;;;5067257;28;19948;-74
2023/03/16 04:12:06;;;;;;;;;;;4.00;98.70;;;;;;5067116;28;19936;-74
2023/03/16 04:14:31;;;;;;;;;;;4.00;98.70;;;;;;5049209;28;20636;-74
2023/03/16 04:16:57;;;;;;;;;;;4.00;98.70;;;;;;5067284;28;19965;-74
2023/03/16 04:19:23;;;;;;;;;;;4.00;98.70;;;;;;5067040;28;19978;-73
2023/03/16 04:21:49;;;;;;;;;;;4.00;98.70;;;;;;5069335;28;20015;-75
2023/03/16 04:24:15;;;;;;;;;;;4.00;98.70;;;;;;5067610;28;19975;-74
2023/03/16 04:26:43;;;;;;;;;;;4.00;98.70;;;;;;5067208;28;20381;-74
2023/03/16 04:29:09;;;;;;;;;;;4.00;98.70;;;;;;5049288;28;19919;-74
2023/03/16 04:31:35;;;;;;;;;;;4.10;98.60;;;;;;5066216;28;19912;-75
2023/03/16 04:34:01;;;;;;;;;;;4.00;98.70;;;;;;5067153;28;19923;-75
2023/03/16 04:36:27;;;;;;;;;;;4.10;98.60;;;;;;5066672;28;19924;-74
2023/03/16 04:38:52;;;;;;;;;;;4.00;98.70;;;;;;5066802;28;20327;-75
2023/03/16 04:41:18;;;;;;;;;;;4.00;98.60;;;;;;5066343;28;19962;-75
2023/03/16 04:43:44;;;;;;;;;;;4.00;98.70;;;;;;5067065;28;20377;-74
2023/03/16 04:46:10;;;;;;;;;;;4.00;98.60;;;;;;5067078;28;19913;-73
2023/03/16 04:48:35;;;;;;;;;;;4.00;98.60;;;;;;5067108;28;19927;-74
2023/03/16 04:51:03;;;;;;;;;;;4.00;98.60;;;;;;5048375;28;20333;-74
2023/03/16 04:53:30;;;;;;;;;;;4.00;98.60;;;;;;5066838;28;19920;-74
2023/03/16 04:55:56;;;;;;;;;;;4.00;98.60;;;;;;5050045;28;20003;-74
2023/03/16 04:58:22;;;;;;;;;;;4.10;98.60;;;;;;5060875;28;20062;-74
2023/03/16 05:00:47;;;;;;;;;;;4.00;98.60;;;;;;5064862;28;19912;-75
2023/03/16 05:03:13;;;;;;;;;;;4.00;98.60;;;;;;5066767;28;19965;-75
2023/03/16 05:05:39;;;;;;;;;;;4.00;98.60;;;;;;5066292;28;20601;-74
2023/03/16 05:08:05;;;;;;;;;;;4.00;98.60;;;;;;5052474;28;19951;-74
2023/03/16 05:10:32;;;;;;;;;;;4.00;98.60;;;;;;5070409;28;19921;-74
2023/03/16 05:12:57;;;;;;;;;;;4.00;98.60;;;;;;5070560;28;20375;-74
2023/03/16 05:15:23;;;;;;;;;;;4.00;98.60;;;;;;5070772;28;20023;-74
2023/03/16 05:17:48;;;;;;;;;;;4.00;98.60;;;;;;5070777;28;20368;-75
2023/03/16 05:20:14;;;;;;;;;;;4.00;98.60;;;;;;5052433;28;19927;-74
2023/03/16 05:22:40;;;;;;;;;;;4.00;98.60;;;;;;5070443;28;19912;-74
2023/03/16 05:25:06;;;;;;;;;;;4.00;98.50;;;;;;5070474;28;19909;-74
2023/03/16 05:27:34;;;;;;;;;;;4.00;98.60;;;;;;5069823;28;20219;-75
2023/03/16 05:30:00;;;;;;;;;;;4.00;98.60;;;;;;5070515;28;19951;-74
2023/03/16 05:32:26;;;;;;;;;;;4.00;98.50;;;;;;5070164;28;19913;-74
2023/03/16 05:34:52;;;;;;;;;;;4.00;98.60;;;;;;5070210;28;20018;-74
2023/03/16 05:37:18;;;;;;;;;;;4.00;98.60;;;;;;5070285;28;19919;-74
2023/03/16 05:39:43;;;;;;;;;;;4.00;98.60;;;;;;5070180;28;19913;-74
2023/03/16 05:42:09;;;;;;;;;;;4.00;98.60;;;;;;5052281;28;19916;-74
2023/03/16 05:44:34;;;;;;;;;;;4.00;98.60;;;;;;5070171;28;19916;-74
2023/03/16 05:47:00;;;;;;;;;;;4.00;98.60;;;;;;5070063;28;20328;-74
2023/03/16 05:49:26;;;;;;;;;;;4.00;98.50;;;;;;5069970;28;19908;-74
2023/03/16 05:51:51;;;;;;;;;;;4.00;98.60;;;;;;5069769;28;19909;-74
2023/03/16 05:54:17;;;;;;;;;;;4.00;98.70;;;;;;5069774;28;20281;-75
2023/03/16 05:56:42;;;;;;;;;;;4.00;98.60;;;;;;5066926;28;20050;-74
2023/03/16 05:59:08;;;;;;;;;;;4.10;98.60;;;;;;5066712;28;19919;-75
2023/03/16 06:01:33;;;;;;;;;;;4.00;98.70;;;;;;5069533;28;20285;-75
2023/03/16 06:03:59;;;;;;;;;;;4.00;98.60;;;;;;5069700;28;19917;-74
2023/03/16 06:06:24;;;;;;;;;;;4.00;98.90;;;;;;5077267;28;20006;-73
2023/03/16 06:08:50;;;;;;;;;;;4.10;98.70;;;;;;5084008;28;19932;-74
2023/03/16 06:11:16;;;;;;;;;;;4.10;98.70;;;;;;5051198;28;19913;-74
2023/03/16 06:13:41;;;;;;;;;;;4.10;98.70;;;;;;5069346;28;19923;-74
2023/03/16 06:16:07;;;;;;;;;;;4.10;98.60;;;;;;5069408;28;19912;-75
2023/03/16 06:18:33;;;;;;;;;;;4.10;98.60;;;;;;5050758;28;19935;-74
2023/03/16 06:20:59;;;;;;;;;;;4.10;98.60;;;;;;5071399;28;19920;-74
2023/03/16 06:23:25;;;;;;;;;;;4.10;98.60;;;;;;5051169;28;20762;-74
2023/03/16 06:25:53;;;;;;;;;;;4.10;98.60;;;;;;5069052;28;19919;-75
2023/03/16 06:28:18;;;;;;;;;;;4.10;98.50;;;;;;5056956;28;19930;-75
2023/03/16 06:30:44;;;;;;;;;;;4.10;98.60;;;;;;5074054;28;19920;-74
2023/03/16 06:33:10;;;;;;;;;;;4.10;98.60;;;;;;5075144;28;20007;-75
2023/03/16 06:35:35;;;;;;;;;;;4.10;98.70;;;;;;5076663;28;19912;-74
2023/03/16 06:38:01;;;;;;;;;;;4.10;98.70;;;;;;5069289;28;19913;-74
2023/03/16 06:40:26;;;;;;;;;;;4.10;98.50;;;;;;5068808;28;20388;-75
2023/03/16 06:42:52;;;;;;;;;;;4.10;98.60;;;;;;5068566;28;19920;-74
2023/03/16 06:45:20;;;;;;;;;;;4.10;98.60;;;;;;5068678;28;19912;-74
2023/03/16 06:47:46;;;;;;;;;;;4.10;98.70;;;;;;5075792;28;19912;-75
2023/03/16 06:50:12;;;;;;;;;;;4.10;98.70;;;;;;5059386;28;19926;-73
2023/03/16 06:52:37;;;;;;;;;;;4.10;98.70;;;;;;5068396;28;19919;-75
2023/03/16 06:55:03;;;;;;;;;;;4.10;98.60;;;;;;5068738;28;19918;-74
2023/03/16 06:57:30;;;;;;;;;;;4.10;98.60;;;;;;5066595;28;19975;-74
2023/03/16 06:59:55;;;;;;;;;;;4.20;98.60;;;;;;5068075;28;19912;-74
2023/03/16 07:02:22;;;;;;;;;;;4.20;98.70;;;;;;5076067;28;20406;-75
2023/03/16 07:04:51;;;;;;;;;;;4.20;98.60;;;;;;5076159;28;19920;-75
2023/03/16 07:07:18;;;;;;;;;;;4.30;98.60;;;;;;5075281;28;20315;-75
2023/03/16 07:09:43;;;;;;;;;;;4.30;98.50;;;;;;5079003;28;19918;-74
2023/03/16 07:12:09;;;;;;;;;;;4.30;98.60;;;;;;5076489;28;20538;-75
2023/03/16 07:14:35;;;;;;;;;;;4.30;98.60;;;;;;5075044;28;20384;-75
2023/03/16 07:17:00;;;;;;;;;;;4.30;98.60;;;;;;5070053;28;20007;-75
2023/03/16 07:19:26;;;;;;;;;;;4.30;98.60;;;;;;5087399;28;20682;-76
2023/03/16 07:21:52;;;;;;;;;;;4.30;98.60;;;;;;5067459;28;19912;-74
2023/03/16 07:24:17;;;;;;;;;;;4.40;98.70;;;;;;5073427;28;19967;-75
2023/03/16 07:26:43;;;;;;;;;;;4.40;98.60;;;;;;5077303;28;19924;-74
2023/03/16 07:29:08;;;;;;;;;;;4.40;98.50;;;;;;5069311;28;19921;-75
2023/03/16 07:31:34;;;;;;;;;;;4.40;98.40;;;;;;5067321;28;19919;-75
2023/03/16 07:34:01;;;;;;;;;;;4.50;98.40;;;;;;5067797;28;20007;-75
2023/03/16 07:36:26;;;;;;;;;;;4.50;98.50;;;;;;5067050;28;19916;-75
2023/03/16 07:38:52;;;;;;;;;;;4.50;98.40;;;;;;5062824;28;19973;-75
2023/03/16 07:41:18;;;;;;;;;;;4.60;98.30;;;;;;5066774;28;19913;-75
2023/03/16 07:43:43;;;;;;;;;;;4.60;98.30;;;;;;5067679;28;19919;-74
2023/03/16 07:46:12;;;;;;;;;;;4.60;98.30;;;;;;5067690;28;19921;-75
2023/03/16 07:48:38;;;;;;;;;;;4.70;98.30;;;;;;5067935;28;19908;-75
2023/03/16 07:51:04;;;;;;;;;;;4.70;98.30;;;;;;5067407;28;19928;-75
2023/03/16 07:53:29;;;;;;;;;;;4.70;98.30;;;;;;5073445;28;20289;-74
2023/03/16 07:55:55;;;;;;;;;;;4.70;98.30;;;;;;5075066;28;20297;-75
2023/03/16 07:58:20;;;;;;;;;;;4.80;98.20;;;;;;5071737;28;20242;-75
2023/03/16 08:00:46;;;;;;;;;;;4.80;98.20;;;;;;5074981;28;19911;-75
2023/03/16 08:03:12;;;;;;;;;;;4.90;98.20;;;;;;5076849;28;20497;-75
2023/03/16 08:05:38;;;;;;;;;;;4.90;98.20;;;;;;5070251;28;19916;-75
2023/03/16 08:08:03;;;;;;;;;;;5.00;98.10;;;;;;5058562;28;19950;-75
2023/03/16 08:10:29;;;;;;;;;;;5.00;98.10;;;;;;5069717;28;20289;-75
2023/03/16 08:12:55;;;;;;;;;;;5.00;98.00;;;;;;5079133;28;19961;-75
2023/03/16 08:15:20;;;;;;;;;;;5.10;97.90;;;;;;5082740;28;19939;-75
2023/03/16 08:17:46;;;;;;;;;;;5.10;98.00;;;;;;5067513;28;19913;-75
2023/03/16 08:20:13;;;;;;;;;;;5.20;98.00;;;;;;5067073;28;19920;-76
2023/03/16 08:22:39;;;;;;;;;;;5.20;97.70;;;;;;5067500;28;19935;-75
2023/03/16 08:25:06;;;;;;;;;;;5.20;97.70;;;;;;5069085;28;20358;-76
2023/03/16 08:27:31;;;;;;;;;;;5.30;97.70;;;;;;5068797;28;19915;-76
2023/03/16 08:30:03;;;;;;;;;;;5.30;97.60;;;;;;5049099;28;19912;-76
2023/03/16 08:32:29;;;;;;;;;;;5.40;97.60;;;;;;5067128;28;19912;-76
2023/03/16 08:34:56;;;;;;;;;;;5.40;97.60;;;;;;5048990;28;19913;-76
2023/03/16 08:37:22;;;;;;;;;;;5.40;97.60;;;;;;5067381;28;19908;-76
2023/03/16 08:39:50;;;;;;;;;;;5.40;97.70;;;;;;5067123;28;20592;-76
2023/03/16 08:42:16;;;;;;;;;;;5.40;97.60;;;;;;5069720;28;19927;-76
2023/03/16 08:44:42;;;;;;;;;;;5.40;97.60;;;;;;5071235;28;19909;-75
2023/03/16 08:47:09;;;;;;;;;;;5.50;97.60;;;;;;5071080;28;19994;-75
2023/03/16 08:49:35;;;;;;;;;;;5.50;97.60;;;;;;5053045;28;19913;-76
2023/03/16 08:52:01;;;;;;;;;;;5.50;97.60;;;;;;5070600;28;20361;-76
2023/03/16 08:54:27;;;;;;;;;;;5.50;97.50;;;;;;5070835;28;19931;-76
2023/03/16 08:56:52;;;;;;;;;;;5.60;97.50;;;;;;5070599;28;19913;-75
2023/03/16 08:59:18;;;;;;;;;;;5.60;97.50;;;;;;5070421;28;19912;-76
2023/03/16 09:01:43;;;;;;;;;;;5.60;97.50;;;;;;5070546;28;19917;-76
2023/03/16 09:04:10;;;;;;;;;;;5.60;97.50;;;;;;5063541;28;19916;-76
2023/03/16 09:06:36;;;;;;;;;;;5.60;97.50;;;;;;5046485;28;19917;-76
2023/03/16 09:09:01;;;;;;;;;;;5.60;97.60;;;;;;5057025;28;19915;-76
2023/03/16 09:11:29;;;;;;;;;;;5.60;97.50;;;;;;5069737;28;19920;-76
2023/03/16 09:13:55;;;;;;;;;;;5.60;97.70;;;;;;5070730;28;19957;-75
2023/03/16 09:16:24;;;;;;;;;;;5.70;97.70;;;;;;5052269;28;20010;-76
2023/03/16 09:18:50;;;;;;;;;;;5.70;97.70;;;;;;5070257;28;19917;-76
2023/03/16 09:21:16;;;;;;;;;;;5.70;97.70;;;;;;5069829;28;20527;-76
2023/03/16 09:23:41;;;;;;;;;;;5.70;97.80;;;;;;5068763;28;19912;-76
2023/03/16 09:26:08;;;;;;;;;;;5.70;97.80;;;;;;5050179;28;19916;-76
2023/03/16 09:28:34;;;;;;;;;;;5.70;97.80;;;;;;5050219;28;19966;-76
2023/03/16 09:31:01;;;;;;;;;;;5.70;97.80;;;;;;5049772;28;19951;-77
2023/03/16 09:33:28;;;;;;;;;;;5.70;97.80;;;;;;5049849;28;19917;-76
2023/03/16 09:35:56;;;;;;;;;;;5.70;97.70;;;;;;5046840;28;19912;-76
2023/03/16 09:38:23;;;;;;;;;;;5.80;97.50;;;;;;5051841;28;20495;-75
2023/03/16 09:40:54;;;;;;;;;;;5.80;97.40;;;;;;5069448;28;19919;-76
2023/03/16 09:43:39;;;;;;;;;;;5.90;97.30;;;;;;5070148;28;19908;-75
2023/03/16 09:46:10;;;;;;;;;;;5.90;97.20;;;;;;5070103;28;19958;-76
2023/03/16 09:48:36;;;;;;;;;;;6.00;97.50;;;;;;5051888;28;19966;-76
2023/03/16 09:51:07;;;;;;;;;;;6.10;97.10;;;;;;5051292;28;19917;-76
2023/03/16 09:53:34;;;;;;;;;;;6.10;97.00;;;;;;5069516;28;19916;-76
2023/03/16 09:56:02;;;;;;;;;;;6.20;96.90;;;;;;5069765;28;19923;-76
2023/03/16 09:58:27;;;;;;;;;;;6.30;97.00;;;;;;5063565;28;20262;-76
2023/03/16 10:00:59;;;;;;;;;;;6.40;96.80;;;;;;5069236;28;19966;-76
2023/03/16 10:03:35;;;;;;;;;;;6.50;96.70;;;;;;5069882;28;19991;-76
2023/03/16 10:06:02;;;;;;;;;;;6.60;96.60;;;;;;5069289;28;20002;-76
2023/03/16 10:08:39;;;;;;;;;;;6.60;96.60;;;;;;5069457;28;20661;-76
2023/03/16 10:11:11;;;;;;;;;;;6.70;96.40;;;;;;5069522;28;19952;-76
2023/03/16 10:13:47;;;;;;;;;;;6.70;96.30;;;;;;5081716;28;19916;-77
2023/03/16 10:16:21;;;;;;;;;;;6.80;96.40;;;;;;5089514;28;19912;-76
2023/03/16 10:18:48;;;;;;;;;;;6.80;96.40;;;;;;5076684;28;19916;-77
2023/03/16 10:21:15;;;;;;;;;;;6.80;96.50;;;;;;5076147;28;19927;-76
2023/03/16 10:23:41;;;;;;;;;;;6.90;96.60;;;;;;5059400;28;19912;-77
2023/03/16 10:26:17;;;;;;;;;;;6.90;96.40;;;;;;5070839;28;19913;-77
2023/03/16 10:28:44;;;;;;;;;;;7.00;96.40;;;;;;5068672;28;19916;-77
2023/03/16 10:31:10;;;;;;;;;;;7.00;96.40;;;;;;5070979;28;19947;-76
2023/03/16 10:33:36;;;;;;;;;;;7.10;96.60;;;;;;5075260;28;19943;-77
2023/03/16 10:36:02;;;;;;;;;;;7.20;96.40;;;;;;5078618;28;20527;-77
2023/03/16 10:38:45;;;;;;;;;;;7.20;96.50;;;;;;5079366;28;19913;-77
2023/03/16 10:41:15;;;;;;;;;;;7.20;96.70;;;;;;5081688;28;20422;-77
2023/03/16 10:43:40;;;;;;;;;;;7.30;96.60;;;;;;5078448;28;19912;-77
2023/03/16 10:46:10;;;;;;;;;;;7.30;96.40;;;;;;5072917;28;20526;-77
2023/03/16 10:48:37;;;;;;;;;;;7.30;96.30;;;;;;5077522;28;20345;-77
2023/03/16 10:51:07;;;;;;;;;;;7.30;96.60;;;;;;5078754;28;19920;-76
2023/03/16 10:53:34;;;;;;;;;;;7.30;96.60;;;;;;5061048;28;19934;-77
2023/03/16 10:56:00;;;;;;;;;;;7.30;96.60;;;;;;5075360;28;20369;-77
2023/03/16 10:58:32;;;;;;;;;;;7.30;96.50;;;;;;5067095;28;20475;-77
2023/03/16 11:00:58;;;;;;;;;;;7.30;96.70;;;;;;5075067;28;20415;-77
2023/03/16 11:03:30;;;;;;;;;;;7.40;96.70;;;;;;5064117;28;19951;-77
2023/03/16 11:06:00;;;;;;;;;;;7.40;96.80;;;;;;5075492;28;19939;-77
2023/03/16 11:08:30;;;;;;;;;;;7.40;96.80;;;;;;5071850;28;19920;-78
2023/03/16 11:10:57;;;;;;;;;;;7.40;96.70;;;;;;5064137;28;20367;-76
2023/03/16 11:13:25;;;;;;;;;;;7.40;96.90;;;;;;5066588;28;20078;-77
2023/03/16 11:16:00;;;;;;;;;;;7.40;96.90;;;;;;5057052;28;19947;-77
2023/03/16 11:18:42;;;;;;;;;;;7.40;96.80;;;;;;5057245;28;19919;-77
2023/03/16 11:21:31;;;;;;;;;;;7.50;97.00;;;;;;5065845;28;20328;-77
2023/03/16 11:23:57;;;;;;;;;;;7.50;97.00;;;;;;5045635;28;19917;-77
2023/03/16 11:26:30;;;;;;;;;;;7.50;96.80;;;;;;5057199;28;19947;-76
2023/03/16 11:29:02;;;;;;;;;;;7.60;96.90;;;;;;5071604;28;19938;-77
2023/03/16 11:31:49;;;;;;;;;;;7.60;96.90;;;;;;5075411;28;20407;-77
2023/03/16 11:34:17;;;;;;;;;;;7.70;96.80;;;;;;5073413;28;20048;-77
2023/03/16 11:36:46;;;;;;;;;;;7.70;96.80;;;;;;5077722;28;19913;-77
2023/03/16 11:39:21;;;;;;;;;;;7.80;96.70;;;;;;5055614;28;19999;-77
2023/03/16 11:42:05;;;;;;;;;;;7.90;96.80;;;;;;5075610;28;19924;-77
2023/03/16 11:44:30;;;;;;;;;;;8.00;96.60;;;;;;5073641;28;19979;-77
2023/03/16 11:47:02;;;;;;;;;;;8.10;96.40;;;;;;5076587;28;20376;-77
2023/03/16 11:49:37;;;;;;;;;;;8.20;96.50;;;;;;5077979;28;20369;-78
2023/03/16 11:52:08;;;;;;;;;;;8.30;96.30;;;;;;5075688;28;19919;-77
2023/03/16 11:54:53;;;;;;;;;;;8.30;96.00;;;;;;5074414;28;19962;-77
2023/03/16 11:57:45;;;;;;;;;;;8.40;96.20;;;;;;5073060;28;19990;-77
2023/03/16 12:00:30;;;;;;;;;;;8.50;96.00;;;;;;5069613;28;20471;-78
2023/03/16 12:03:01;;;;;;;;;;;8.60;95.90;;;;;;5074364;28;19912;-77
2023/03/16 12:05:44;;;;;;;;;;;8.70;96.00;;;;;;5075055;28;19938;-77
2023/03/16 12:08:10;;;;;;;;;;;8.80;95.90;;;;;;5073236;28;19973;-78
2023/03/16 12:10:41;;;;;;;;;;;8.90;95.60;;;;;;5072990;28;20246;-78
2023/03/16 12:13:09;;;;;;;;;;;9.00;96.00;;;;;;5075311;28;19916;-77
2023/03/16 12:15:44;;;;;;;;;;;9.10;96.00;;;;;;5076871;28;19908;-78
2023/03/16 12:18:14;;;;;;;;;;;9.20;95.60;;;;;;5079323;28;19917;-78
2023/03/16 12:20:43;;;;;;;;;;;9.30;96.00;;;;;;5079168;28;19924;-78
2023/03/16 12:23:12;;;;;;;;;;;9.40;96.20;;;;;;5079041;28;19919;-77
2023/03/16 12:25:39;;;;;;;;;;;9.50;96.00;;;;;;5080807;28;20414;-78
2023/03/16 12:28:25;;;;;;;;;;;9.50;96.30;;;;;;5079684;28;20737;-78
2023/03/16 12:31:01;;;;;;;;;;;9.60;96.10;;;;;;5080043;28;19959;-78
2023/03/16 12:33:27;;;;;;;;;;;9.60;96.20;;;;;;5070123;28;19965;-78
2023/03/16 12:36:01;;;;;;;;;;;9.70;96.40;;;;;;5070608;28;19917;-78
2023/03/16 12:38:27;;;;;;;;;;;9.70;96.30;;;;;;5070121;28;19927;-78
2023/03/16 12:40:59;;;;;;;;;;;9.70;96.20;;;;;;5067855;28;19913;-78
2023/03/16 12:43:27;;;;;;;;;;;9.80;96.20;;;;;;5069847;28;19916;-78
2023/03/16 12:46:15;;;;;;;;;;;9.80;96.30;;;;;;5070584;28;19924;-78
2023/03/16 12:48:46;;;;;;;;;;;9.80;96.10;;;;;;5070305;28;19965;-78
2023/03/16 12:51:11;;;;;;;;;;;9.80;96.10;;;;;;5072641;28;19917;-78
2023/03/16 12:53:41;;;;;;;;;;;9.80;96.10;;;;;;5070592;28;19928;-78
2023/03/16 12:56:10;;;;;;;;;;;9.80;96.20;;;;;;5061246;28;19912;-78
2023/03/16 12:58:40;;;;;;;;;;;9.80;96.10;;;;;;5070082;28;19913;-78
2023/03/16 13:01:08;;;;;;;;;;;9.80;96.10;;;;;;5069097;28;19915;-78
2023/03/16 13:03:33;;;;;;;;;;;9.80;96.20;;;;;;5070649;28;19913;-78
2023/03/16 13:06:00;;;;;;;;;;;9.80;95.70;;;;;;5070557;28;19924;-78
2023/03/16 13:08:26;;;;;;;;;;;9.80;95.50;;;;;;5070590;28;19913;-78
2023/03/16 13:11:05;;;;;;;;;;;9.80;95.30;;;;;;5070459;28;19912;-78
2023/03/16 13:13:31;;;;;;;;;;;9.80;95.30;;;;;;5070317;28;19999;-78
2023/03/16 13:16:03;;;;;;;;;;;9.80;95.20;;;;;;5070434;28;20624;-78
2023/03/16 13:18:34;;;;;;;;;;;9.90;95.80;;;;;;5070394;28;19919;-78
2023/03/16 13:21:11;;;;;;;;;;;9.90;95.30;;;;;;5069917;28;20015;-79
2023/03/16 13:24:07;;;;;;;;;;;9.90;95.70;;;;;;5068458;28;20369;-78
2023/03/16 13:26:45;;;;;;;;;;;9.90;95.50;;;;;;5053732;28;20262;-78
2023/03/16 13:29:18;;;;;;;;;;;9.90;94.80;;;;;;5068789;28;19912;-78
2023/03/16 13:31:44;;;;;;;;;;;10.00;95.50;;;;;;5067528;28;20688;-78
2023/03/16 13:34:25;;;;;;;;;;;10.00;95.60;;;;;;5069975;28;19927;-78
2023/03/16 13:36:53;;;;;;;;;;;10.00;95.10;;;;;;5061476;28;19908;-78
2023/03/16 13:39:22;;;;;;;;;;;10.10;95.10;;;;;;5070100;28;19913;-78
2023/03/16 13:41:58;;;;;;;;;;;10.10;95.30;;;;;;5069705;28;19912;-77
2023/03/16 13:44:25;;;;;;;;;;;10.10;95.60;;;;;;5067481;28;20340;-78
2023/03/16 13:46:50;;;;;;;;;;;10.10;95.50;;;;;;5069523;28;20428;-78
2023/03/16 13:49:17;;;;;;;;;;;10.20;95.60;;;;;;5059877;28;20011;-78
2023/03/16 13:51:44;;;;;;;;;;;10.20;95.50;;;;;;5069104;28;20396;-78
2023/03/16 13:54:29;;;;;;;;;;;10.20;95.60;;;;;;5069506;28;19947;-78
2023/03/16 13:56:59;;;;;;;;;;;10.20;95.60;;;;;;5069159;28;19913;-78
2023/03/16 13:59:25;;;;;;;;;;;10.20;95.80;;;;;;5069312;28;19965;-79
2023/03/16 14:01:58;;;;;;;;;;;10.20;95.90;;;;;;5068934;28;19913;-79
2023/03/16 14:04:27;;;;;;;;;;;10.20;96.00;;;;;;5069460;28;19989;-78
2023/03/16 14:07:00;;;;;;;;;;;10.30;96.30;;;;;;5068954;28;20266;-78
2023/03/16 14:09:28;;;;;;;;;;;10.30;96.30;;;;;;5069245;28;19969;-78
2023/03/16 14:11:53;;;;;;;;;;;10.30;96.10;;;;;;5068734;28;19912;-78
2023/03/16 14:14:38;;;;;;;;;;;10.30;95.60;;;;;;5068794;28;19939;-78
2023/03/16 14:17:15;;;;;;;;;;;10.30;96.10;;;;;;5068365;28;19944;-79
2023/03/16 14:19:48;;;;;;;;;;;10.40;95.60;;;;;;5068693;28;19916;-78
2023/03/16 14:22:16;;;;;;;;;;;10.40;96.00;;;;;;5052356;28;19960;-79
2023/03/16 14:24:43;;;;;;;;;;;10.50;95.70;;;;;;5068695;28;19983;-78
2023/03/16 14:27:16;;;;;;;;;;;10.50;95.60;;;;;;5069138;28;19913;-78
2023/03/16 14:29:42;;;;;;;;;;;10.50;95.60;;;;;;5068917;28;19962;-78
2023/03/16 14:32:27;;;;;;;;;;;10.60;95.30;;;;;;5068668;28;19912;-78
2023/03/16 14:34:58;;;;;;;;;;;10.60;95.10;;;;;;5067115;28;19923;-78